sensor_id;sensor_type;location;lat;lon;timestamp;temperature;humidity
76099;DHT22;64828;49.956;8.636;2023-03-11T00:00:07;1.60;81.50
76099;DHT22;64828;49.956;8.636;2023-03-11T00:00:29;1.60;81.60
76099;DHT22;64828;49.956;8.636;2023-03-11T00:00:47;1.60;82.00
76099;DHT22;64828;49.956;8.636;2023-03-11T00:01:04;1.60;82.20
76099;DHT22;64828;49.956;8.636;2023-03-11T00:01:20;1.60;82.30
76099;DHT22;64828;49.956;8.636;2023-03-11T00:01:36;1.60;82.20
76099;DHT22;64828;49.956;8.636;2023-03-11T00:01:54;1.60;82.30
76099;DHT22;64828;49.956;8.636;2023-03-11T00:02:10;1.60;82.30
76099;DHT22;64828;49.956;8.636;2023-03-11T00:02:26;1.60;82.20
76099;DHT22;64828;49.956;8.636;2023-03-11T00:02:49;1.60;82.20
76099;DHT22;64828;49.956;8.636;2023-03-11T00:03:07;1.60;82.40
76099;DHT22;64828;49.956;8.636;2023-03-11T00:03:23;1.60;82.80
76099;DHT22;64828;49.956;8.636;2023-03-11T00:03:39;1.60;82.50
76099;DHT22;64828;49.956;8.636;2023-03-11T00:03:55;1.60;82.50
76099;DHT22;64828;49.956;8.636;2023-03-11T00:04:11;1.60;82.70
76099;DHT22;64828;49.956;8.636;2023-03-11T00:04:27;1.60;82.70
76099;DHT22;64828;49.956;8.636;2023-03-11T00:04:42;1.60;82.10
76099;DHT22;64828;49.956;8.636;2023-03-11T00:04:58;1.60;81.70
76099;DHT22;64828;49.956;8.636;2023-03-11T00:05:17;1.60;81.40
76099;DHT22;64828;49.956;8.636;2023-03-11T00:05:40;1.60;81.40
76099;DHT22;64828;49.956;8.636;2023-03-11T00:06:00;1.60;81.60
76099;DHT22;64828;49.956;8.636;2023-03-11T00:06:16;1.60;81.50
76099;DHT22;64828;49.956;8.636;2023-03-11T00:06:34;1.60;81.30
76099;DHT22;64828;49.956;8.636;2023-03-11T00:06:50;1.60;81.20
76099;DHT22;64828;49.956;8.636;2023-03-11T00:07:06;1.60;80.90
76099;DHT22;64828;49.956;8.636;2023-03-11T00:07:23;1.60;81.20
76099;DHT22;64828;49.956;8.636;2023-03-11T00:07:39;1.60;81.10
76099;DHT22;64828;49.956;8.636;2023-03-11T00:07:54;1.60;81.10
76099;DHT22;64828;49.956;8.636;2023-03-11T00:08:14;1.60;80.60
76099;DHT22;64828;49.956;8.636;2023-03-11T00:08:32;1.60;80.30
76099;DHT22;64828;49.956;8.636;2023-03-11T00:08:48;1.60;79.90
76099;DHT22;64828;49.956;8.636;2023-03-11T00:09:05;1.60;79.50
76099;DHT22;64828;49.956;8.636;2023-03-11T00:09:20;1.60;79.70
76099;DHT22;64828;49.956;8.636;2023-03-11T00:09:36;1.60;80.00
76099;DHT22;64828;49.956;8.636;2023-03-11T00:09:52;1.60;79.30
76099;DHT22;64828;49.956;8.636;2023-03-11T00:10:11;1.60;78.80
76099;DHT22;64828;49.956;8.636;2023-03-11T00:10:32;1.60;78.30
76099;DHT22;64828;49.956;8.636;2023-03-11T00:10:58;1.60;78.70
76099;DHT22;64828;49.956;8.636;2023-03-11T00:11:14;1.60;79.00
76099;DHT22;64828;49.956;8.636;2023-03-11T00:11:30;1.60;79.30
76099;DHT22;64828;49.956;8.636;2023-03-11T00:11:46;1.60;79.00
76099;DHT22;64828;49.956;8.636;2023-03-11T00:12:02;1.60;79.10
76099;DHT22;64828;49.956;8.636;2023-03-11T00:12:18;1.60;79.10
76099;DHT22;64828;49.956;8.636;2023-03-11T00:12:34;1.60;78.80
76099;DHT22;64828;49.956;8.636;2023-03-11T00:12:50;1.60;78.80
76099;DHT22;64828;49.956;8.636;2023-03-11T00:13:07;1.60;78.80
76099;DHT22;64828;49.956;8.636;2023-03-11T00:13:27;1.60;79.00
76099;DHT22;64828;49.956;8.636;2023-03-11T00:13:43;1.60;79.30
76099;DHT22;64828;49.956;8.636;2023-03-11T00:13:59;1.60;79.50
76099;DHT22;64828;49.956;8.636;2023-03-11T00:14:15;1.60;79.50
76099;DHT22;64828;49.956;8.636;2023-03-11T00:14:30;1.60;79.50
76099;DHT22;64828;49.956;8.636;2023-03-11T00:14:46;1.60;79.60
76099;DHT22;64828;49.956;8.636;2023-03-11T00:15:01;1.60;79.20
76099;DHT22;64828;49.956;8.636;2023-03-11T00:15:17;1.60;79.00
76099;DHT22;64828;49.956;8.636;2023-03-11T00:15:33;1.60;78.60
76099;DHT22;64828;49.956;8.636;2023-03-11T00:15:51;1.60;78.10
76099;DHT22;64828;49.956;8.636;2023-03-11T00:16:10;1.60;78.30
76099;DHT22;64828;49.956;8.636;2023-03-11T00:16:25;1.60;78.50
76099;DHT22;64828;49.956;8.636;2023-03-11T00:16:41;1.60;78.50
76099;DHT22;64828;49.956;8.636;2023-03-11T00:16:56;1.60;78.30
76099;DHT22;64828;49.956;8.636;2023-03-11T00:17:12;1.60;78.20
76099;DHT22;64828;49.956;8.636;2023-03-11T00:17:28;1.60;78.50
76099;DHT22;64828;49.956;8.636;2023-03-11T00:17:43;1.60;78.50
76099;DHT22;64828;49.956;8.636;2023-03-11T00:17:59;1.60;78.50
76099;DHT22;64828;49.956;8.636;2023-03-11T00:18:15;1.60;78.50
76099;DHT22;64828;49.956;8.636;2023-03-11T00:18:32;1.60;78.40
76099;DHT22;64828;49.956;8.636;2023-03-11T00:18:50;1.60;78.60
76099;DHT22;64828;49.956;8.636;2023-03-11T00:19:07;1.60;79.00
76099;DHT22;64828;49.956;8.636;2023-03-11T00:19:24;1.60;79.10
76099;DHT22;64828;49.956;8.636;2023-03-11T00:19:40;1.60;79.30
76099;DHT22;64828;49.956;8.636;2023-03-11T00:19:55;1.60;79.10
76099;DHT22;64828;49.956;8.636;2023-03-11T00:20:18;1.60;78.70
76099;DHT22;64828;49.956;8.636;2023-03-11T00:20:38;1.60;79.00
76099;DHT22;64828;49.956;8.636;2023-03-11T00:20:57;1.60;78.40
76099;DHT22;64828;49.956;8.636;2023-03-11T00:21:15;1.60;78.20
76099;DHT22;64828;49.956;8.636;2023-03-11T00:21:32;1.60;78.10
76099;DHT22;64828;49.956;8.636;2023-03-11T00:21:49;1.60;77.90
76099;DHT22;64828;49.956;8.636;2023-03-11T00:22:04;1.60;78.00
76099;DHT22;64828;49.956;8.636;2023-03-11T00:22:20;1.60;77.90
76099;DHT22;64828;49.956;8.636;2023-03-11T00:22:35;1.60;78.10
76099;DHT22;64828;49.956;8.636;2023-03-11T00:22:52;1.60;77.60
76099;DHT22;64828;49.956;8.636;2023-03-11T00:23:09;1.60;78.10
76099;DHT22;64828;49.956;8.636;2023-03-11T00:23:27;1.60;77.70
76099;DHT22;64828;49.956;8.636;2023-03-11T00:23:44;1.60;77.50
76099;DHT22;64828;49.956;8.636;2023-03-11T00:23:59;1.60;77.50
76099;DHT22;64828;49.956;8.636;2023-03-11T00:24:17;1.60;77.60
76099;DHT22;64828;49.956;8.636;2023-03-11T00:24:33;1.60;77.50
76099;DHT22;64828;49.956;8.636;2023-03-11T00:24:49;1.60;77.40
76099;DHT22;64828;49.956;8.636;2023-03-11T00:25:04;1.60;76.90
76099;DHT22;64828;49.956;8.636;2023-03-11T00:25:22;1.60;77.00
76099;DHT22;64828;49.956;8.636;2023-03-11T00:25:39;1.60;76.70
76099;DHT22;64828;49.956;8.636;2023-03-11T00:25:57;1.60;76.90
76099;DHT22;64828;49.956;8.636;2023-03-11T00:26:14;1.60;77.40
76099;DHT22;64828;49.956;8.636;2023-03-11T00:26:29;1.60;77.50
76099;DHT22;64828;49.956;8.636;2023-03-11T00:26:45;1.60;77.40
76099;DHT22;64828;49.956;8.636;2023-03-11T00:27:01;1.60;77.30
76099;DHT22;64828;49.956;8.636;2023-03-11T00:27:18;1.60;77.00
76099;DHT22;64828;49.956;8.636;2023-03-11T00:27:33;1.60;76.90
76099;DHT22;64828;49.956;8.636;2023-03-11T00:27:50;1.60;76.50
76099;DHT22;64828;49.956;8.636;2023-03-11T00:28:05;1.60;76.80
76099;DHT22;64828;49.956;8.636;2023-03-11T00:28:27;1.60;76.40
76099;DHT22;64828;49.956;8.636;2023-03-11T00:28:43;1.60;76.50
76099;DHT22;64828;49.956;8.636;2023-03-11T00:28:58;1.60;76.40
76099;DHT22;64828;49.956;8.636;2023-03-11T00:29:14;1.60;76.60
76099;DHT22;64828;49.956;8.636;2023-03-11T00:29:29;1.60;76.70
76099;DHT22;64828;49.956;8.636;2023-03-11T00:29:45;1.50;76.40
76099;DHT22;64828;49.956;8.636;2023-03-11T00:30:01;1.60;76.00
76099;DHT22;64828;49.956;8.636;2023-03-11T00:30:18;1.50;76.00
76099;DHT22;64828;49.956;8.636;2023-03-11T00:30:34;1.60;76.30
76099;DHT22;64828;49.956;8.636;2023-03-11T00:30:50;1.50;76.40
76099;DHT22;64828;49.956;8.636;2023-03-11T00:31:06;1.50;76.50
76099;DHT22;64828;49.956;8.636;2023-03-11T00:31:21;1.50;76.50
76099;DHT22;64828;49.956;8.636;2023-03-11T00:31:37;1.50;76.70
76099;DHT22;64828;49.956;8.636;2023-03-11T00:31:52;1.50;76.30
76099;DHT22;64828;49.956;8.636;2023-03-11T00:32:08;1.50;75.90
76099;DHT22;64828;49.956;8.636;2023-03-11T00:32:23;1.50;75.80
76099;DHT22;64828;49.956;8.636;2023-03-11T00:32:39;1.50;76.30
76099;DHT22;64828;49.956;8.636;2023-03-11T00:32:56;1.50;75.80
76099;DHT22;64828;49.956;8.636;2023-03-11T00:33:14;1.50;75.90
76099;DHT22;64828;49.956;8.636;2023-03-11T00:33:30;1.60;74.90
76099;DHT22;64828;49.956;8.636;2023-03-11T00:33:46;1.60;74.10
76099;DHT22;64828;49.956;8.636;2023-03-11T00:34:01;1.50;74.10
76099;DHT22;64828;49.956;8.636;2023-03-11T00:34:17;1.60;73.70
76099;DHT22;64828;49.956;8.636;2023-03-11T00:34:33;1.60;73.50
76099;DHT22;64828;49.956;8.636;2023-03-11T00:34:48;1.60;73.20
76099;DHT22;64828;49.956;8.636;2023-03-11T00:35:05;1.60;73.10
76099;DHT22;64828;49.956;8.636;2023-03-11T00:35:24;1.60;73.50
76099;DHT22;64828;49.956;8.636;2023-03-11T00:35:43;1.60;73.90
76099;DHT22;64828;49.956;8.636;2023-03-11T00:35:59;1.60;74.10
76099;DHT22;64828;49.956;8.636;2023-03-11T00:36:23;1.60;73.70
76099;DHT22;64828;49.956;8.636;2023-03-11T00:36:43;1.60;73.90
76099;DHT22;64828;49.956;8.636;2023-03-11T00:36:58;1.60;73.70
76099;DHT22;64828;49.956;8.636;2023-03-11T00:37:14;1.60;73.80
76099;DHT22;64828;49.956;8.636;2023-03-11T00:37:29;1.60;74.30
76099;DHT22;64828;49.956;8.636;2023-03-11T00:37:46;1.60;74.30
76099;DHT22;64828;49.956;8.636;2023-03-11T00:38:05;1.60;74.40
76099;DHT22;64828;49.956;8.636;2023-03-11T00:38:22;1.60;74.70
76099;DHT22;64828;49.956;8.636;2023-03-11T00:38:38;1.60;74.80
76099;DHT22;64828;49.956;8.636;2023-03-11T00:38:53;1.60;74.40
76099;DHT22;64828;49.956;8.636;2023-03-11T00:39:09;1.60;74.60
76099;DHT22;64828;49.956;8.636;2023-03-11T00:39:25;1.60;74.10
76099;DHT22;64828;49.956;8.636;2023-03-11T00:39:40;1.60;74.10
76099;DHT22;64828;49.956;8.636;2023-03-11T00:39:56;1.60;73.70
76099;DHT22;64828;49.956;8.636;2023-03-11T00:40:16;1.60;73.80
76099;DHT22;64828;49.956;8.636;2023-03-11T00:40:34;1.60;73.50
76099;DHT22;64828;49.956;8.636;2023-03-11T00:40:50;1.60;74.00
76099;DHT22;64828;49.956;8.636;2023-03-11T00:41:06;1.60;73.70
76099;DHT22;64828;49.956;8.636;2023-03-11T00:41:21;1.60;73.20
76099;DHT22;64828;49.956;8.636;2023-03-11T00:41:37;1.60;73.30
76099;DHT22;64828;49.956;8.636;2023-03-11T00:41:53;1.60;73.60
76099;DHT22;64828;49.956;8.636;2023-03-11T00:42:10;1.60;73.50
76099;DHT22;64828;49.956;8.636;2023-03-11T00:42:26;1.60;74.10
76099;DHT22;64828;49.956;8.636;2023-03-11T00:42:42;1.60;74.10
76099;DHT22;64828;49.956;8.636;2023-03-11T00:42:59;1.60;73.90
76099;DHT22;64828;49.956;8.636;2023-03-11T00:43:15;1.60;74.10
76099;DHT22;64828;49.956;8.636;2023-03-11T00:43:31;1.60;74.00
76099;DHT22;64828;49.956;8.636;2023-03-11T00:43:47;1.60;74.10
76099;DHT22;64828;49.956;8.636;2023-03-11T00:44:02;1.60;73.90
76099;DHT22;64828;49.956;8.636;2023-03-11T00:44:18;1.60;74.00
76099;DHT22;64828;49.956;8.636;2023-03-11T00:44:33;1.60;74.00
76099;DHT22;64828;49.956;8.636;2023-03-11T00:44:49;1.60;72.90
76099;DHT22;64828;49.956;8.636;2023-03-11T00:45:05;1.70;72.60
76099;DHT22;64828;49.956;8.636;2023-03-11T00:45:21;1.70;72.30
76099;DHT22;64828;49.956;8.636;2023-03-11T00:45:37;1.70;71.90
76099;DHT22;64828;49.956;8.636;2023-03-11T00:45:53;1.70;71.90
76099;DHT22;64828;49.956;8.636;2023-03-11T00:46:08;1.70;72.10
76099;DHT22;64828;49.956;8.636;2023-03-11T00:46:24;1.70;72.10
76099;DHT22;64828;49.956;8.636;2023-03-11T00:46:40;1.70;72.40
76099;DHT22;64828;49.956;8.636;2023-03-11T00:46:55;1.70;72.90
76099;DHT22;64828;49.956;8.636;2023-03-11T00:47:11;1.60;73.20
76099;DHT22;64828;49.956;8.636;2023-03-11T00:47:26;1.60;73.20
76099;DHT22;64828;49.956;8.636;2023-03-11T00:47:42;1.60;73.40
76099;DHT22;64828;49.956;8.636;2023-03-11T00:47:58;1.60;72.90
76099;DHT22;64828;49.956;8.636;2023-03-11T00:48:14;1.60;73.50
76099;DHT22;64828;49.956;8.636;2023-03-11T00:48:29;1.60;73.30
76099;DHT22;64828;49.956;8.636;2023-03-11T00:48:45;1.70;73.00
76099;DHT22;64828;49.956;8.636;2023-03-11T00:49:01;1.70;73.20
76099;DHT22;64828;49.956;8.636;2023-03-11T00:49:16;1.70;73.00
76099;DHT22;64828;49.956;8.636;2023-03-11T00:49:32;1.70;73.10
76099;DHT22;64828;49.956;8.636;2023-03-11T00:49:48;1.70;73.30
76099;DHT22;64828;49.956;8.636;2023-03-11T00:50:04;1.70;73.00
76099;DHT22;64828;49.956;8.636;2023-03-11T00:50:23;1.70;73.00
76099;DHT22;64828;49.956;8.636;2023-03-11T00:50:41;1.70;72.50
76099;DHT22;64828;49.956;8.636;2023-03-11T00:50:57;1.70;72.40
76099;DHT22;64828;49.956;8.636;2023-03-11T00:51:14;1.70;72.40
76099;DHT22;64828;49.956;8.636;2023-03-11T00:51:30;1.70;72.60
76099;DHT22;64828;49.956;8.636;2023-03-11T00:51:46;1.70;72.10
76099;DHT22;64828;49.956;8.636;2023-03-11T00:52:02;1.70;72.30
76099;DHT22;64828;49.956;8.636;2023-03-11T00:52:18;1.70;72.60
76099;DHT22;64828;49.956;8.636;2023-03-11T00:52:34;1.70;72.40
76099;DHT22;64828;49.956;8.636;2023-03-11T00:52:50;1.70;72.40
76099;DHT22;64828;49.956;8.636;2023-03-11T00:53:07;1.70;72.60
76099;DHT22;64828;49.956;8.636;2023-03-11T00:53:22;1.70;72.20
76099;DHT22;64828;49.956;8.636;2023-03-11T00:53:38;1.70;71.80
76099;DHT22;64828;49.956;8.636;2023-03-11T00:53:53;1.70;71.60
76099;DHT22;64828;49.956;8.636;2023-03-11T00:54:10;1.70;71.60
76099;DHT22;64828;49.956;8.636;2023-03-11T00:54:26;1.70;72.10
76099;DHT22;64828;49.956;8.636;2023-03-11T00:54:42;1.70;71.50
76099;DHT22;64828;49.956;8.636;2023-03-11T00:54:58;1.70;71.70
76099;DHT22;64828;49.956;8.636;2023-03-11T00:55:16;1.70;72.10
76099;DHT22;64828;49.956;8.636;2023-03-11T00:55:34;1.70;71.50
76099;DHT22;64828;49.956;8.636;2023-03-11T00:55:50;1.70;71.90
76099;DHT22;64828;49.956;8.636;2023-03-11T00:56:07;1.70;71.90
76099;DHT22;64828;49.956;8.636;2023-03-11T00:56:24;1.70;72.20
76099;DHT22;64828;49.956;8.636;2023-03-11T00:56:39;1.70;71.60
76099;DHT22;64828;49.956;8.636;2023-03-11T00:56:56;1.70;71.20
76099;DHT22;64828;49.956;8.636;2023-03-11T00:57:11;1.70;71.40
76099;DHT22;64828;49.956;8.636;2023-03-11T00:57:27;1.70;70.90
76099;DHT22;64828;49.956;8.636;2023-03-11T00:57:43;1.70;70.90
76099;DHT22;64828;49.956;8.636;2023-03-11T00:58:02;1.70;70.70
76099;DHT22;64828;49.956;8.636;2023-03-11T00:58:19;1.70;71.30
76099;DHT22;64828;49.956;8.636;2023-03-11T00:58:37;1.80;71.00
76099;DHT22;64828;49.956;8.636;2023-03-11T00:58:53;1.70;71.00
76099;DHT22;64828;49.956;8.636;2023-03-11T00:59:09;1.70;70.90
76099;DHT22;64828;49.956;8.636;2023-03-11T00:59:25;1.80;70.90
76099;DHT22;64828;49.956;8.636;2023-03-11T00:59:40;1.70;70.00
76099;DHT22;64828;49.956;8.636;2023-03-11T00:59:58;1.80;69.80
76099;DHT22;64828;49.956;8.636;2023-03-11T01:00:15;1.80;69.80
76099;DHT22;64828;49.956;8.636;2023-03-11T01:00:33;1.80;70.10
76099;DHT22;64828;49.956;8.636;2023-03-11T01:00:49;1.80;69.80
76099;DHT22;64828;49.956;8.636;2023-03-11T01:01:10;1.80;69.90
76099;DHT22;64828;49.956;8.636;2023-03-11T01:01:30;1.80;69.50
76099;DHT22;64828;49.956;8.636;2023-03-11T01:01:46;1.80;70.30
76099;DHT22;64828;49.956;8.636;2023-03-11T01:02:01;1.80;70.10
76099;DHT22;64828;49.956;8.636;2023-03-11T01:02:17;1.80;70.00
76099;DHT22;64828;49.956;8.636;2023-03-11T01:02:35;1.80;70.30
76099;DHT22;64828;49.956;8.636;2023-03-11T01:02:52;1.80;70.10
76099;DHT22;64828;49.956;8.636;2023-03-11T01:03:09;1.80;70.30
76099;DHT22;64828;49.956;8.636;2023-03-11T01:03:24;1.80;70.20
76099;DHT22;64828;49.956;8.636;2023-03-11T01:03:40;1.80;70.20
76099;DHT22;64828;49.956;8.636;2023-03-11T01:03:56;1.80;70.50
76099;DHT22;64828;49.956;8.636;2023-03-11T01:04:12;1.80;70.30
76099;DHT22;64828;49.956;8.636;2023-03-11T01:04:27;1.80;69.90
76099;DHT22;64828;49.956;8.636;2023-03-11T01:04:43;1.80;70.00
76099;DHT22;64828;49.956;8.636;2023-03-11T01:04:59;1.80;70.00
76099;DHT22;64828;49.956;8.636;2023-03-11T01:05:14;1.80;70.30
76099;DHT22;64828;49.956;8.636;2023-03-11T01:05:31;1.80;70.10
76099;DHT22;64828;49.956;8.636;2023-03-11T01:05:47;1.80;70.20
76099;DHT22;64828;49.956;8.636;2023-03-11T01:06:04;1.80;70.40
76099;DHT22;64828;49.956;8.636;2023-03-11T01:06:20;1.80;70.50
76099;DHT22;64828;49.956;8.636;2023-03-11T01:06:36;1.80;70.50
76099;DHT22;64828;49.956;8.636;2023-03-11T01:06:51;1.80;70.50
76099;DHT22;64828;49.956;8.636;2023-03-11T01:07:07;1.80;70.70
76099;DHT22;64828;49.956;8.636;2023-03-11T01:07:22;1.70;71.00
76099;DHT22;64828;49.956;8.636;2023-03-11T01:07:38;1.80;71.00
76099;DHT22;64828;49.956;8.636;2023-03-11T01:07:54;1.80;70.60
76099;DHT22;64828;49.956;8.636;2023-03-11T01:08:09;1.80;70.40
76099;DHT22;64828;49.956;8.636;2023-03-11T01:08:25;1.70;70.80
76099;DHT22;64828;49.956;8.636;2023-03-11T01:08:41;1.80;70.60
76099;DHT22;64828;49.956;8.636;2023-03-11T01:08:56;1.80;70.70
76099;DHT22;64828;49.956;8.636;2023-03-11T01:09:12;1.80;70.70
76099;DHT22;64828;49.956;8.636;2023-03-11T01:09:28;1.80;70.90
76099;DHT22;64828;49.956;8.636;2023-03-11T01:09:43;1.80;71.30
76099;DHT22;64828;49.956;8.636;2023-03-11T01:09:59;1.70;71.70
76099;DHT22;64828;49.956;8.636;2023-03-11T01:10:32;1.70;72.00
76099;DHT22;64828;49.956;8.636;2023-03-11T01:10:49;1.70;71.70
76099;DHT22;64828;49.956;8.636;2023-03-11T01:11:05;1.70;71.70
76099;DHT22;64828;49.956;8.636;2023-03-11T01:11:22;1.70;71.40
76099;DHT22;64828;49.956;8.636;2023-03-11T01:11:37;1.70;71.40
76099;DHT22;64828;49.956;8.636;2023-03-11T01:11:53;1.70;71.50
76099;DHT22;64828;49.956;8.636;2023-03-11T01:12:08;1.70;71.50
76099;DHT22;64828;49.956;8.636;2023-03-11T01:12:24;1.70;71.60
76099;DHT22;64828;49.956;8.636;2023-03-11T01:12:40;1.70;71.70
76099;DHT22;64828;49.956;8.636;2023-03-11T01:12:57;1.70;72.20
76099;DHT22;64828;49.956;8.636;2023-03-11T01:13:13;1.70;72.10
76099;DHT22;64828;49.956;8.636;2023-03-11T01:13:29;1.70;72.00
76099;DHT22;64828;49.956;8.636;2023-03-11T01:13:45;1.70;71.50
76099;DHT22;64828;49.956;8.636;2023-03-11T01:14:01;1.70;71.90
76099;DHT22;64828;49.956;8.636;2023-03-11T01:14:17;1.70;71.80
76099;DHT22;64828;49.956;8.636;2023-03-11T01:14:32;1.70;72.00
76099;DHT22;64828;49.956;8.636;2023-03-11T01:14:48;1.70;71.90
76099;DHT22;64828;49.956;8.636;2023-03-11T01:15:05;1.70;72.20
76099;DHT22;64828;49.956;8.636;2023-03-11T01:15:31;1.70;72.30
76099;DHT22;64828;49.956;8.636;2023-03-11T01:15:49;1.60;72.30
76099;DHT22;64828;49.956;8.636;2023-03-11T01:16:05;1.70;72.80
76099;DHT22;64828;49.956;8.636;2023-03-11T01:16:22;1.60;72.80
76099;DHT22;64828;49.956;8.636;2023-03-11T01:16:37;1.60;73.10
76099;DHT22;64828;49.956;8.636;2023-03-11T01:16:53;1.60;73.20
76099;DHT22;64828;49.956;8.636;2023-03-11T01:17:09;1.60;73.60
76099;DHT22;64828;49.956;8.636;2023-03-11T01:17:25;1.60;73.50
76099;DHT22;64828;49.956;8.636;2023-03-11T01:17:40;1.60;73.50
76099;DHT22;64828;49.956;8.636;2023-03-11T01:17:56;1.60;73.70
76099;DHT22;64828;49.956;8.636;2023-03-11T01:18:12;1.60;74.20
76099;DHT22;64828;49.956;8.636;2023-03-11T01:18:28;1.60;74.80
76099;DHT22;64828;49.956;8.636;2023-03-11T01:18:44;1.60;74.50
76099;DHT22;64828;49.956;8.636;2023-03-11T01:18:59;1.60;74.30
76099;DHT22;64828;49.956;8.636;2023-03-11T01:19:15;1.60;74.30
76099;DHT22;64828;49.956;8.636;2023-03-11T01:19:30;1.60;74.10
76099;DHT22;64828;49.956;8.636;2023-03-11T01:19:47;1.60;73.90
76099;DHT22;64828;49.956;8.636;2023-03-11T01:20:03;1.60;74.20
76099;DHT22;64828;49.956;8.636;2023-03-11T01:20:21;1.60;74.30
76099;DHT22;64828;49.956;8.636;2023-03-11T01:20:37;1.50;74.00
76099;DHT22;64828;49.956;8.636;2023-03-11T01:20:53;1.50;73.60
76099;DHT22;64828;49.956;8.636;2023-03-11T01:21:09;1.50;73.90
76099;DHT22;64828;49.956;8.636;2023-03-11T01:21:25;1.50;74.10
76099;DHT22;64828;49.956;8.636;2023-03-11T01:21:40;1.50;74.40
76099;DHT22;64828;49.956;8.636;2023-03-11T01:21:57;1.60;74.00
76099;DHT22;64828;49.956;8.636;2023-03-11T01:22:13;1.50;74.00
76099;DHT22;64828;49.956;8.636;2023-03-11T01:22:28;1.50;74.10
76099;DHT22;64828;49.956;8.636;2023-03-11T01:22:44;1.60;74.10
76099;DHT22;64828;49.956;8.636;2023-03-11T01:23:00;1.60;74.30
76099;DHT22;64828;49.956;8.636;2023-03-11T01:23:16;1.50;74.30
76099;DHT22;64828;49.956;8.636;2023-03-11T01:23:33;1.50;74.20
76099;DHT22;64828;49.956;8.636;2023-03-11T01:23:49;1.50;73.80
76099;DHT22;64828;49.956;8.636;2023-03-11T01:24:04;1.50;73.80
76099;DHT22;64828;49.956;8.636;2023-03-11T01:24:20;1.60;73.90
76099;DHT22;64828;49.956;8.636;2023-03-11T01:24:36;1.50;73.90
76099;DHT22;64828;49.956;8.636;2023-03-11T01:24:51;1.50;73.90
76099;DHT22;64828;49.956;8.636;2023-03-11T01:25:08;1.50;73.90
76099;DHT22;64828;49.956;8.636;2023-03-11T01:25:26;1.50;74.20
76099;DHT22;64828;49.956;8.636;2023-03-11T01:25:42;1.50;74.50
76099;DHT22;64828;49.956;8.636;2023-03-11T01:25:58;1.50;74.50
76099;DHT22;64828;49.956;8.636;2023-03-11T01:26:13;1.50;74.30
76099;DHT22;64828;49.956;8.636;2023-03-11T01:26:29;1.50;74.30
76099;DHT22;64828;49.956;8.636;2023-03-11T01:26:45;1.50;74.10
76099;DHT22;64828;49.956;8.636;2023-03-11T01:27:01;1.50;74.10
76099;DHT22;64828;49.956;8.636;2023-03-11T01:27:16;1.50;73.90
76099;DHT22;64828;49.956;8.636;2023-03-11T01:27:32;1.50;74.30
76099;DHT22;64828;49.956;8.636;2023-03-11T01:27:47;1.50;74.20
76099;DHT22;64828;49.956;8.636;2023-03-11T01:28:04;1.50;74.10
76099;DHT22;64828;49.956;8.636;2023-03-11T01:28:22;1.50;74.10
76099;DHT22;64828;49.956;8.636;2023-03-11T01:28:38;1.50;74.10
76099;DHT22;64828;49.956;8.636;2023-03-11T01:28:53;1.50;74.00
76099;DHT22;64828;49.956;8.636;2023-03-11T01:29:09;1.50;73.90
76099;DHT22;64828;49.956;8.636;2023-03-11T01:29:24;1.50;73.90
76099;DHT22;64828;49.956;8.636;2023-03-11T01:29:40;1.50;73.70
76099;DHT22;64828;49.956;8.636;2023-03-11T01:29:56;1.50;73.90
76099;DHT22;64828;49.956;8.636;2023-03-11T01:30:20;1.50;73.80
76099;DHT22;64828;49.956;8.636;2023-03-11T01:30:39;1.50;73.80
76099;DHT22;64828;49.956;8.636;2023-03-11T01:30:55;1.50;73.50
76099;DHT22;64828;49.956;8.636;2023-03-11T01:31:11;1.50;73.40
76099;DHT22;64828;49.956;8.636;2023-03-11T01:31:27;1.50;73.30
76099;DHT22;64828;49.956;8.636;2023-03-11T01:31:42;1.50;73.40
76099;DHT22;64828;49.956;8.636;2023-03-11T01:31:58;1.50;73.60
76099;DHT22;64828;49.956;8.636;2023-03-11T01:32:14;1.50;73.80
76099;DHT22;64828;49.956;8.636;2023-03-11T01:32:29;1.50;74.00
76099;DHT22;64828;49.956;8.636;2023-03-11T01:32:45;1.50;73.90
76099;DHT22;64828;49.956;8.636;2023-03-11T01:33:02;1.50;73.90
76099;DHT22;64828;49.956;8.636;2023-03-11T01:33:18;1.50;74.20
76099;DHT22;64828;49.956;8.636;2023-03-11T01:33:34;1.50;73.90
76099;DHT22;64828;49.956;8.636;2023-03-11T01:33:49;1.50;73.40
76099;DHT22;64828;49.956;8.636;2023-03-11T01:34:05;1.50;73.30
76099;DHT22;64828;49.956;8.636;2023-03-11T01:34:21;1.50;73.40
76099;DHT22;64828;49.956;8.636;2023-03-11T01:34:36;1.50;73.70
76099;DHT22;64828;49.956;8.636;2023-03-11T01:34:52;1.50;73.80
76099;DHT22;64828;49.956;8.636;2023-03-11T01:35:10;1.50;73.80
76099;DHT22;64828;49.956;8.636;2023-03-11T01:35:29;1.50;74.20
76099;DHT22;64828;49.956;8.636;2023-03-11T01:35:45;1.50;74.30
76099;DHT22;64828;49.956;8.636;2023-03-11T01:36:01;1.50;74.30
76099;DHT22;64828;49.956;8.636;2023-03-11T01:36:16;1.50;74.30
76099;DHT22;64828;49.956;8.636;2023-03-11T01:36:32;1.50;74.40
76099;DHT22;64828;49.956;8.636;2023-03-11T01:36:48;1.50;74.40
76099;DHT22;64828;49.956;8.636;2023-03-11T01:37:03;1.50;74.60
76099;DHT22;64828;49.956;8.636;2023-03-11T01:37:19;1.50;74.40
76099;DHT22;64828;49.956;8.636;2023-03-11T01:37:35;1.50;74.20
76099;DHT22;64828;49.956;8.636;2023-03-11T01:37:50;1.50;73.90
76099;DHT22;64828;49.956;8.636;2023-03-11T01:38:07;1.50;74.40
76099;DHT22;64828;49.956;8.636;2023-03-11T01:38:22;1.50;74.50
76099;DHT22;64828;49.956;8.636;2023-03-11T01:38:38;1.50;74.20
76099;DHT22;64828;49.956;8.636;2023-03-11T01:38:53;1.50;74.10
76099;DHT22;64828;49.956;8.636;2023-03-11T01:39:09;1.50;74.30
76099;DHT22;64828;49.956;8.636;2023-03-11T01:39:25;1.50;74.20
76099;DHT22;64828;49.956;8.636;2023-03-11T01:39:40;1.50;74.50
76099;DHT22;64828;49.956;8.636;2023-03-11T01:39:56;1.50;74.60
76099;DHT22;64828;49.956;8.636;2023-03-11T01:40:40;1.50;74.40
76099;DHT22;64828;49.956;8.636;2023-03-11T01:40:57;1.50;74.20
76099;DHT22;64828;49.956;8.636;2023-03-11T01:41:13;1.50;74.20
76099;DHT22;64828;49.956;8.636;2023-03-11T01:41:29;1.50;74.20
76099;DHT22;64828;49.956;8.636;2023-03-11T01:41:44;1.50;74.20
76099;DHT22;64828;49.956;8.636;2023-03-11T01:42:00;1.50;74.10
76099;DHT22;64828;49.956;8.636;2023-03-11T01:42:16;1.60;74.50
76099;DHT22;64828;49.956;8.636;2023-03-11T01:42:31;1.50;74.90
76099;DHT22;64828;49.956;8.636;2023-03-11T01:42:47;1.60;74.60
76099;DHT22;64828;49.956;8.636;2023-03-11T01:43:05;1.50;74.60
76099;DHT22;64828;49.956;8.636;2023-03-11T01:43:54;1.50;74.40
76099;DHT22;64828;49.956;8.636;2023-03-11T01:44:11;1.60;74.60
76099;DHT22;64828;49.956;8.636;2023-03-11T01:44:27;1.60;74.30
76099;DHT22;64828;49.956;8.636;2023-03-11T01:44:42;1.60;74.20
76099;DHT22;64828;49.956;8.636;2023-03-11T01:44:58;1.60;74.30
76099;DHT22;64828;49.956;8.636;2023-03-11T01:47:37;1.60;74.20
76099;DHT22;64828;49.956;8.636;2023-03-11T01:47:54;1.60;74.10
76099;DHT22;64828;49.956;8.636;2023-03-11T01:48:09;1.60;74.20
76099;DHT22;64828;49.956;8.636;2023-03-11T01:48:25;1.60;74.00
76099;DHT22;64828;49.956;8.636;2023-03-11T01:48:47;1.60;73.90
76099;DHT22;64828;49.956;8.636;2023-03-11T01:49:08;1.60;73.80